createdAt,value
2022-11-27T00:10:21.188Z,99200
2022-11-27T00:22:21.193Z,99200
2022-11-27T00:34:21.194Z,99180
2022-11-27T00:46:26.646Z,99150
2022-11-27T00:58:21.209Z,99160
2022-11-27T01:10:21.208Z,99160
2022-11-27T01:22:21.210Z,99160
2022-11-27T01:34:21.314Z,99160
2022-11-27T01:46:21.360Z,99160
2022-11-27T01:58:21.517Z,99140
2022-11-27T02:10:21.192Z,99140
2022-11-27T02:22:21.193Z,99110
2022-11-27T02:34:21.223Z,99100
2022-11-27T02:46:21.228Z,99110
2022-11-27T02:58:21.306Z,99100
2022-11-27T03:10:21.286Z,99080
2022-11-27T03:22:21.214Z,99040
2022-11-27T03:34:21.210Z,99030
2022-11-27T03:46:21.366Z,99020
2022-11-27T03:58:21.290Z,99000
2022-11-27T04:10:21.192Z,99010
2022-11-27T04:22:21.196Z,99030
2022-11-27T04:34:21.201Z,99030
2022-11-27T04:46:21.351Z,99030
2022-11-27T04:58:21.193Z,99000
2022-11-27T05:10:21.314Z,98990
2022-11-27T05:22:21.191Z,98960
2022-11-27T05:34:21.307Z,98960
2022-11-27T05:46:21.318Z,98970
2022-11-27T05:58:21.312Z,98930
2022-11-27T06:10:21.828Z,98910
2022-11-27T06:22:21.520Z,98900
2022-11-27T06:34:21.197Z,98930
2022-11-27T06:46:21.292Z,98900
2022-11-27T06:58:21.270Z,98890
2022-11-27T07:10:21.301Z,98900
2022-11-27T07:22:21.246Z,98880
2022-11-27T07:34:21.933Z,98870
2022-11-27T07:46:21.630Z,98870
2022-11-27T07:58:21.195Z,98860
2022-11-27T08:10:21.205Z,98860
2022-11-27T08:22:21.299Z,98830
2022-11-27T08:34:21.296Z,98820
2022-11-27T08:46:21.356Z,98810
2022-11-27T08:58:21.265Z,98790
2022-11-27T09:10:21.190Z,98780
2022-11-27T09:22:21.194Z,98780
2022-11-27T09:34:21.261Z,98780
2022-11-27T09:46:21.293Z,98750
2022-11-27T09:58:21.203Z,98740
2022-11-27T10:10:21.270Z,98720
2022-11-27T10:22:21.509Z,98730
2022-11-27T10:34:21.203Z,98740
2022-11-27T10:46:21.280Z,98680
2022-11-27T10:58:21.194Z,98660
2022-11-27T11:10:21.193Z,98670
2022-11-27T11:22:21.192Z,98700
2022-11-27T11:34:21.318Z,98700
2022-11-27T11:46:21.307Z,98660
2022-11-27T11:58:21.330Z,98640
2022-11-27T12:10:21.206Z,98620
2022-11-27T12:22:21.308Z,98600
2022-11-27T12:34:21.304Z,98580
2022-11-27T12:46:21.334Z,98550
2022-11-27T12:58:21.306Z,98530
2022-11-27T13:10:21.193Z,98520
2022-11-27T13:22:21.188Z,98460
2022-11-27T13:34:21.196Z,98430
2022-11-27T13:46:21.280Z,98380
2022-11-27T13:58:21.288Z,98360
2022-11-27T14:10:21.307Z,98400
2022-11-27T14:22:21.261Z,98370
2022-11-27T14:34:24.655Z,98360
2022-11-27T14:46:21.315Z,98390
2022-11-27T14:58:21.209Z,98380
2022-11-27T15:10:21.228Z,98390
2022-11-27T15:22:21.189Z,98390
2022-11-27T15:34:21.208Z,98380
2022-11-27T15:46:21.317Z,98360
2022-11-27T15:58:21.286Z,98350
2022-11-27T16:10:21.189Z,98360
2022-11-27T16:22:21.291Z,98350
2022-11-27T16:34:21.255Z,98330
2022-11-27T16:46:21.388Z,98300
2022-11-27T16:58:21.205Z,98280
2022-11-27T17:10:21.317Z,98250
2022-11-27T17:22:21.230Z,98170
2022-11-27T17:34:21.301Z,98190
2022-11-27T17:46:21.354Z,98170
2022-11-27T17:58:21.189Z,98150
2022-11-27T18:10:21.224Z,98150
2022-11-27T18:22:21.299Z,98130
2022-11-27T18:34:21.202Z,98130
2022-11-27T18:46:21.370Z,98110
2022-11-27T18:58:21.303Z,98090
2022-11-27T19:10:21.292Z,98080
2022-11-27T19:22:21.191Z,98030
2022-11-27T19:34:21.305Z,98040
2022-11-27T19:46:21.227Z,98030
2022-11-27T19:58:21.303Z,98040
2022-11-27T20:10:21.189Z,98030
2022-11-27T20:22:21.259Z,98040
2022-11-27T20:34:21.270Z,98020
2022-11-27T20:46:21.327Z,98030
2022-11-27T20:58:21.247Z,98000
2022-11-27T21:10:21.261Z,98000
2022-11-27T21:22:21.620Z,97970
2022-11-27T21:34:21.318Z,97990
2022-11-27T21:46:21.291Z,97960
2022-11-27T21:58:21.294Z,97960
2022-11-27T22:10:21.252Z,97960
2022-11-27T22:22:21.319Z,97960
2022-11-27T22:34:21.294Z,97930
2022-11-27T22:46:21.258Z,97910
2022-11-27T22:58:21.293Z,97870
2022-11-27T23:10:21.309Z,97900
2022-11-27T23:22:21.290Z,97900
2022-11-27T23:34:21.258Z,97880
2022-11-27T23:46:21.333Z,97860
2022-11-27T23:58:21.192Z,97870
